• Join FlightAware (Why Join?)
  • Login
  • US Flag 
06:02AM EDT


 

Airport Tracker/Info


-or-


 

Live Flight TrackerFlight Track Log ✈ UPS2332 ✈ 24-Oct-2013 ✈ KSDF - KMIA

Flight Track Log - Related Links

Times and Time Zones

All times are in EDT time to prevent confusion due to time zone crossing. See the UPS2332 flight status page for this flight to view local times or setup timezone preferences in your user account.

Time Position Orientation Groundspeed Altitude Reporting Facility
EDT Latitude Longitude Course Direction KTS MPH feet Rate Location/Type
04:51PM 37.5403 -85.4143 190° South  Level Estimated
04:51PM 37.9790 -86.0240 233° Southwest 419 482 18,200  Level FlightAware
04:51PM 37.9280 -86.0450 198° South 409 471 20,100 3,000 Climbing FlightAware
04:52PM 37.4714 -85.5285 233° Southwest  Level FlightAware Approximate
04:52PM 37.8570 -86.0740 198° South 423 487 21,600  Level FlightAware
04:53PM 37.7760 -86.1060 197° South 434 499 23,400 2,340 Climbing FlightAware
04:54PM 37.6380 -86.1620 198° South 449 517 25,900 2,100 Climbing FlightAware
04:54PM 37.5680 -86.1890 197° South 450 518 27,000 1,980 Climbing FlightAware
04:55PM 37.5000 -86.2170 198° South 458 527 28,200 2,580 Climbing FlightAware
04:56PM 37.4020 -86.2560 198° South 445 512 30,600 2,700 Climbing FlightAware
04:56PM 37.3348 -86.2825 197° South 442 509 32,000 2,040 Climbing FlightAware ADS-B
04:57PM 37.2711 -86.3080 198° South 441 507 32,900 1,440 Climbing FlightAware ADS-B
04:58PM 37.1810 -86.3390 195° South 469 540 33,900 840 Climbing FlightAware
04:58PM 37.1065 -86.3414 181° South 507 583 34,000 60 Climbing FlightAware ADS-B
04:58PM 37.0610 -86.3302 169° South 528 608 34,000  Level FlightAware ADS-B
04:59PM 36.9857 -86.3054 165° South 528 608 34,000  Level FlightAware ADS-B
04:59PM 36.9149 -86.2815 165° South 526 605 34,000  Level FlightAware ADS-B
05:00PM 36.8448 -86.2578 165° South 514 592 34,000  Level FlightAware ADS-B
05:00PM 36.7763 -86.2351 165° South 503 579 34,000 360 Level FlightAware ADS-B
05:01PM 36.7083 -86.2133 166° South 505 581 34,400 600 Climbing FlightAware ADS-B
05:02PM 36.5630 -86.1670 166° South 495 570 35,000 420 Climbing FlightAware
05:02PM 36.5276 -86.1557 166° South 503 579 35,000  Level FlightAware ADS-B
05:03PM 36.4593 -86.1338 166° South 499 574 35,000  Level FlightAware ADS-B
05:03PM 36.3851 -86.1103 166° South 502 578 35,000  Level FlightAware ADS-B
05:04PM 36.3159 -86.0882 166° South 504 580 35,000  Level FlightAware ADS-B
05:05PM 36.2342 -86.0621 166° South 505 581 35,000  Level FlightAware ADS-B
05:05PM 36.1578 -86.0377 166° South 504 580 35,000  Level FlightAware ADS-B
05:06PM 36.0894 -86.0160 166° South 503 579 35,000  Level FlightAware ADS-B
05:06PM 36.0204 -85.9940 166° South 500 575 35,000  Level FlightAware ADS-B
05:07PM 35.9263 -85.9642 166° South 497 572 35,000  Level FlightAware ADS-B
05:07PM 35.8583 -85.9428 166° South 493 567 35,000  Level FlightAware ADS-B
05:08PM 35.7912 -85.9216 166° South 490 564 35,000  Level FlightAware ADS-B
05:08PM 35.7234 -85.9002 166° South 487 560 35,000  Level FlightAware ADS-B
05:09PM 35.6532 -85.8783 166° South 484 557 35,000  Level FlightAware ADS-B
05:09PM 35.5870 -85.8580 166° South 481 554 35,000  Level FlightAware
05:10PM 35.4790 -85.8240 166° South 475 547 35,000  Level FlightAware
05:11PM 35.3350 -85.7790 166° South 468 539 35,000  Level FlightAware
05:12PM 35.2600 -85.7560 166° South 466 536 35,000  Level FlightAware
05:12PM 35.2017 -85.7375 165° South 465 535 35,000  Level FlightAware ADS-B
05:13PM 35.1357 -85.7169 166° South 465 535 35,000  Level FlightAware ADS-B
05:13PM 35.0729 -85.6975 166° South 465 535 35,000  Level FlightAware ADS-B
05:14PM 35.0086 -85.6777 166° South 465 535 35,000  Level FlightAware ADS-B
05:14PM 34.9428 -85.6573 166° South 466 536 35,000  Level FlightAware ADS-B
05:15PM 34.8232 -85.6205 166° South 470 541 35,000  Level FlightAware ADS-B
05:16PM 34.7379 -85.5943 166° South 473 544 35,000  Level FlightAware ADS-B
05:17PM 34.6540 -85.5687 166° South 475 547 35,000  Level FlightAware ADS-B
05:17PM 34.5769 -85.5451 166° South 478 550 35,000  Level FlightAware ADS-B
05:18PM 34.5108 -85.5249 166° South 480 552 35,000  Level FlightAware ADS-B
05:19PM 34.3502 -85.4762 166° South 481 554 35,000  Level FlightAware ADS-B
05:20PM 34.2170 -85.4340 165° South 481 554 35,000  Level FlightAware
05:21PM 34.1290 -85.4050 165° South 481 554 35,000  Level FlightAware
05:22PM 34.0630 -85.3840 165° South 481 554 35,000  Level FlightAware
05:22PM 34.0190 -85.3700 165° South 481 554 35,000  Level FlightAware
05:23PM 33.9540 -85.3490 165° South 481 554 35,000  Level FlightAware
05:23PM 33.9100 -85.3340 164° South 481 554 35,000  Level FlightAware
05:24PM 33.7680 -85.3000 169° South 468 539 35,000  Level FlightAware
05:24PM 33.7230 -85.2870 166° South 467 537 35,000  Level FlightAware
05:25PM 33.5990 -85.2500 166° South 472 543 35,000  Level FlightAware
05:26PM 33.5240 -85.2280 166° South 471 542 35,000  Level FlightAware
05:26PM 33.4480 -85.2050 166° South 470 541 35,000  Level FlightAware
05:27PM 33.3260 -85.1690 166° South 468 539 35,000  Level FlightAware
05:28PM 33.2610 -85.1500 166° South 468 539 35,000  Level FlightAware
05:29PM 33.1450 -85.1150 166° South 467 537 35,000  Level FlightAware
05:29PM 33.0320 -85.0820 166° South 466 536 35,000  Level FlightAware
05:30PM 32.9060 -85.0450 166° South 466 536 35,000  Level FlightAware
05:31PM 32.8460 -85.0270 166° South 466 536 35,000  Level FlightAware
05:32PM 32.7600 -85.0020 166° South 468 539 35,000  Level FlightAware
05:32PM 32.6820 -84.9800 167° South 470 541 35,000  Level FlightAware
05:33PM 32.5730 -84.9480 166° South 471 542 35,000  Level FlightAware
05:34PM 32.3990 -84.8970 166° South 473 544 35,000  Level FlightAware
05:35PM 32.3540 -84.8840 166° South 473 544 35,000  Level FlightAware
05:35PM 32.2740 -84.8610 166° South 472 543 35,000  Level FlightAware
05:36PM 32.1410 -84.8230 166° South 471 542 35,000  Level FlightAware
05:37PM 32.0650 -84.8000 166° South 472 543 35,000  Level FlightAware
05:38PM 31.9200 -84.7590 167° South 471 542 35,000  Level FlightAware
05:39PM 31.8150 -84.7290 166° South 470 541 35,000  Level FlightAware
05:40PM 31.6900 -84.6930 166° South 467 537 35,000  Level FlightAware
05:40PM 31.6350 -84.6770 166° South 466 536 35,000  Level FlightAware
05:41PM 31.5670 -84.6560 165° South 470 541 35,000  Level FlightAware
05:41PM 31.5040 -84.6280 159° South 478 550 35,000  Level FlightAware
05:42PM 31.4380 -84.5910 154° Southeast 482 555 35,000  Level FlightAware
05:43PM 31.3160 -84.5220 154° Southeast 480 552 35,000  Level FlightAware
05:44PM 31.2460 -84.4830 155° Southeast 479 551 35,000  Level FlightAware
05:44PM 31.1420 -84.4270 155° Southeast 477 549 35,000  Level FlightAware
05:45PM 31.0847 -84.3953 155° Southeast 476 548 35,000  Level FlightAware ADS-B (KTLH)
05:45PM 31.0247 -84.3627 155° Southeast 476 548 35,000  Level FlightAware ADS-B (KTLH)
05:46PM 30.9456 -84.3197 155° Southeast 475 547 35,000  Level FlightAware ADS-B (KTLH)
05:47PM 30.8757 -84.2817 155° Southeast 475 547 35,000  Level FlightAware ADS-B (KTLH)
05:47PM 30.8084 -84.2451 155° Southeast 475 547 35,000  Level FlightAware ADS-B (KTLH)
05:48PM 30.7310 -84.2032 155° Southeast 476 548 35,000  Level FlightAware ADS-B (KTLH)
05:49PM 30.6547 -84.1619 155° Southeast 476 548 35,000  Level FlightAware ADS-B (KTLH)
05:49PM 30.5712 -84.1167 155° Southeast 477 549 35,000  Level FlightAware ADS-B (KTLH)
05:50PM 30.5069 -84.0820 155° Southeast 476 548 35,000  Level FlightAware ADS-B (KTLH)
05:50PM 30.4275 -84.0392 155° Southeast 476 548 35,000  Level FlightAware ADS-B (KTLH)
05:51PM 30.3536 -83.9995 155° Southeast 475 547 35,000  Level FlightAware ADS-B (KTLH)
05:52PM 30.2694 -83.9542 155° Southeast 473 544 35,000  Level FlightAware ADS-B (KTLH)
05:52PM 30.2125 -83.9237 155° Southeast 473 544 35,000  Level FlightAware ADS-B (KTLH)
05:53PM 30.1422 -83.8862 155° Southeast 472 543 35,000  Level FlightAware ADS-B (KTLH)
05:53PM 30.0744 -83.8500 155° Southeast 472 543 35,000  Level FlightAware ADS-B (KTLH)
05:54PM 30.0109 -83.8161 155° Southeast 471 542 35,000  Level FlightAware ADS-B (KTLH)
05:55PM 29.8930 -83.7530 155° Southeast 469 540 35,000  Level FlightAware
05:55PM 29.8592 -83.7353 156° South 469 540 35,000  Level FlightAware ADS-B (KTLH)
05:56PM 29.7820 -83.6940 155° Southeast 468 539 35,000  Level FlightAware
05:57PM 29.6880 -83.6440 155° Southeast 468 539 35,000  Level FlightAware
05:57PM 29.5860 -83.5910 156° South 468 539 35,000  Level FlightAware
05:58PM 29.5190 -83.5550 155° Southeast 467 537 35,000  Level FlightAware
05:59PM 29.4480 -83.5180 156° South 466 536 35,000  Level FlightAware
05:59PM 29.3690 -83.4760 155° Southeast 465 535 35,000  Level FlightAware
06:00PM 29.3130 -83.4470 156° South 464 534 35,000  Level FlightAware
06:01PM 29.1910 -83.3830 155° Southeast 463 533 35,000  Level FlightAware
06:01PM 29.1320 -83.3520 155° Southeast 462 532 35,000  Level FlightAware
06:02PM 29.0690 -83.3190 155° Southeast 462 532 35,000  Level FlightAware
06:03PM 28.9440 -83.2540 156° South 462 532 35,000  Level FlightAware
06:04PM 28.8290 -83.1940 155° Southeast 462 532 35,000  Level FlightAware
06:04PM 28.7740 -83.1650 155° Southeast 462 532 35,000  Level FlightAware
06:05PM 28.7020 -83.1280 156° South 462 532 35,000  Level FlightAware
06:06PM 28.6140 -83.0830 156° South 462 532 35,000  Level FlightAware
06:07PM 28.5120 -83.0300 155° Southeast 463 533 35,000  Level FlightAware
06:07PM 28.4150 -82.9800 156° South 464 534 35,000  Level FlightAware
06:08PM 28.3370 -82.9400 156° South 465 535 35,000  Level FlightAware
06:09PM 28.2360 -82.8880 156° South 465 535 35,000  Level FlightAware
06:10PM 28.1500 -82.8440 156° South 464 534 35,000  Level FlightAware
06:11PM 28.0530 -82.7940 156° South 463 533 35,000  Level FlightAware
06:11PM 27.9450 -82.7410 157° South 460 529 35,000  Level FlightAware
06:12PM 27.8410 -82.7000 161° South 457 526 35,000  Level FlightAware
06:13PM 27.7210 -82.6550 162° South 459 528 35,000  Level FlightAware
06:14PM 27.6130 -82.6150 162° South 460 529 35,000  Level FlightAware
06:15PM 27.5350 -82.5860 162° South 462 532 35,000  Level FlightAware
06:16PM 27.3930 -82.5330 162° South 464 534 35,000  Level FlightAware
06:17PM 27.2990 -82.4980 162° South 464 534 35,000  Level FlightAware
06:18PM 27.1890 -82.4570 162° South 466 536 35,000  Level FlightAware
06:19PM 27.0840 -82.4170 161° South 466 536 35,000  Level FlightAware
06:20PM 27.0440 -82.4020 162° South 466 536 35,000  Level FlightAware
06:20PM 26.9840 -82.3780 160° South 466 536 35,000  Level FlightAware
06:21PM 26.9420 -82.3620 161° South 466 536 35,000  Level FlightAware
06:22PM 26.8140 -82.3130 161° South 466 536 35,000 -1,440 Level FlightAware
06:23PM 26.5930 -81.8960 121° Southeast 468 539 31,100 -2,460 Descending FlightAware
06:24PM 26.5320 -81.8300 136° Southeast 461 531 29,600 -2,340 Descending FlightAware
06:25PM 26.4140 -81.7220 141° Southeast 440 506 26,700 -2,280 Descending FlightAware
06:26PM 26.3830 -81.7030 151° Southeast 439 505 26,200 -1,800 Descending FlightAware
06:26PM 26.3270 -81.6690 151° Southeast 438 504 25,200 -1,800 Descending FlightAware
06:27PM 26.2470 -81.6220 152° Southeast 417 480 23,900 -1,800 Descending FlightAware
06:28PM 26.1620 -81.5730 153° Southeast 402 463 22,400 -1,740 Descending FlightAware
06:29PM 26.0710 -81.5190 152° Southeast 396 456 20,800 -2,160 Descending FlightAware
06:29PM 26.0280 -81.4650 132° Southeast 401 461 19,200 -3,060 Descending FlightAware
06:30PM 26.0080 -81.3970 108° East 398 458 17,400 -3,240 Descending FlightAware
06:31PM 25.9780 -81.2860 107° East 378 435 14,200 -2,820 Descending FlightAware
06:32PM 25.9500 -81.1870 107° East 380 437 12,200 -2,220 Descending FlightAware
06:32PM 25.9330 -81.1230 106° East 374 430 11,100 -1,440 Descending FlightAware
06:33PM 25.9080 -81.0310 107° East 344 396 10,200 -840 Descending FlightAware
06:34PM 25.8950 -80.9830 107° East 325 374 10,000 -360 Descending FlightAware
06:34PM 25.8890 -80.9430 99° East 290 334 9,900 -240 Descending FlightAware
06:35PM 25.8850 -80.9020 96° East 270 311 9,800 -720 Descending FlightAware
06:35PM 25.8810 -80.8590 96° East 272 313 9,200 -1,080 Descending FlightAware
06:35PM 25.8780 -80.8310 97° East 267 307 8,900 -1,260 Descending FlightAware
06:36PM 25.8650 -80.7860 108° East 262 302 8,100 -1,500 Descending FlightAware
06:36PM 25.8540 -80.7610 116° Southeast 264 304 7,600 -1,440 Descending FlightAware
06:37PM 25.8370 -80.7240 117° Southeast 266 306 6,900 -1,500 Descending FlightAware
06:37PM 25.8340 -80.7050 100° East 259 298 6,500 -1,320 Descending FlightAware
06:37PM 25.8350 -80.6730 88° East 248 285 6,000 -660 Descending FlightAware
06:38PM 25.8360 -80.6260 89° East 216 249 5,800 -780 Descending FlightAware
06:39PM 25.8330 -80.5990 97° East 207 238 5,200 -1,560 Descending FlightAware
06:39PM 25.8260 -80.5750 108° East 204 235 4,500 -1,500 Descending FlightAware
06:39PM 25.8170 -80.5430 107° East 198 228 3,900 -1,080 Descending FlightAware
06:40PM 25.8110 -80.5240 109° East 191 220 3,600 -900 Descending FlightAware
06:40PM 25.8060 -80.5050 106° East 188 216 3,300 -900 Descending FlightAware
06:41PM 25.7990 -80.4780 106° East 178 205 2,900 -780 Descending FlightAware
06:41PM 25.7960 -80.4540 98° East 194 223 2,600 -840 Descending FlightAware
06:41PM 25.7970 -80.4350 87° East 187 215 2,300 -840 Descending FlightAware
06:42PM 25.7980 -80.4120 87° East 169 194 2,000 -960 Descending FlightAware
06:42PM 25.7990 -80.3950 86° East 156 180 1,600 -1,080 Descending FlightAware
06:42PM 25.8000 -80.3790 86° East 147 169 1,300 -780 Descending FlightAware
06:43PM 25.8010 -80.3600 87° East 132 152 1,000 -660 Descending FlightAware
06:43PM 25.8010 -80.3400 90° East 134 154 700 -780 Descending FlightAware
06:44PM 25.8020 -80.3170 87° East 138 159 200 -960 Descending FlightAware
06:44PM 25.8030 -80.3000 86° East 141 162 -540 Descending FlightAware
06:45PM 25.8030 -80.2930 90° East 115 132  Level FlightAware
06:45PM 25.8040 -80.2790 85° East 115 132  Level FlightAware